Holmdel Village, New Jersey
Current Conditions -  °F | °C
As of 9:35 AM on Saturday 22 Nov 2014 (Local Time) from KBLM Reporting Station
Clear Clear  
Wind Chill: -3°   Ceiling: Unl
Heat Index:   Visibility: 10mi
Dew Point: -12°   Wind: 10mph
Humidity: 38%   Direction: 240°WSW
Pressure: 30.48"   Gusts: NA
Location:  40.3764°N, 74.1727°W
Report Text: KBLM 221435Z AUTO 24009KT 10SM CLR 01/M12 A3048 RMK AO1
Loading
Personal Weather Stations






























Interactive Weather Map New forecast layout! Learn more

10-Day Weather Forecast

Advertisements
Track Severe Weather on mobile